Time;durP1;ratioP1;P1;durP2;ratioP2;P2;SDS_P1;SDS_P2;PMS_P1;PMS_P2;Temp;Humidity;BMP_temperature;BMP_pressure;BME280_temperature;BME280_humidity;BME280_pressure;Samples;Min_cycle;Max_cycle;Signal;HPM_P1;HPM_P2
2023/07/19 00:00:38;;;;;;;4.50;3.43;;;22.80;35.60;;;;;;5074378;28;20422;-51
2023/07/19 00:03:04;;;;;;;4.23;3.80;;;22.80;35.90;;;;;;5074648;28;20407;-54
2023/07/19 00:05:30;;;;;;;7.30;3.73;;;22.80;35.90;;;;;;5074500;28;20271;-53
2023/07/19 00:07:56;;;;;;;8.03;3.90;;;22.80;36.20;;;;;;5074589;28;20925;-52
2023/07/19 00:10:22;;;;;;;7.37;3.60;;;22.70;35.70;;;;;;5074279;28;20430;-54
2023/07/19 00:12:48;;;;;;;5.70;3.30;;;22.60;35.70;;;;;;5074406;28;20399;-54
2023/07/19 00:15:14;;;;;;;7.20;4.60;;;22.60;36.00;;;;;;5074432;28;20400;-51
2023/07/19 00:17:42;;;;;;;6.53;3.67;;;22.60;35.90;;;;;;5074311;28;20490;-53
2023/07/19 00:20:10;;;;;;;4.13;3.73;;;22.60;35.80;;;;;;5073232;28;20458;-51
2023/07/19 00:22:36;;;;;;;5.73;4.10;;;22.60;35.80;;;;;;5074384;28;20498;-51
2023/07/19 00:25:02;;;;;;;7.40;3.63;;;22.60;35.60;;;;;;5074268;28;20490;-51
2023/07/19 00:27:27;;;;;;;5.30;3.83;;;22.60;35.70;;;;;;5074155;28;20458;-54
2023/07/19 00:29:53;;;;;;;7.10;3.87;;;22.50;36.20;;;;;;5073831;28;20790;-54
2023/07/19 00:32:19;;;;;;;4.53;3.90;;;22.40;36.30;;;;;;5074393;28;20612;-51
2023/07/19 00:34:46;;;;;;;8.40;3.80;;;22.30;36.40;;;;;;5074136;28;20510;-53
2023/07/19 00:37:12;;;;;;;5.20;3.70;;;22.30;36.40;;;;;;5074004;28;20289;-52
2023/07/19 00:39:38;;;;;;;6.40;4.07;;;22.30;36.50;;;;;;5073779;28;20458;-52
2023/07/19 00:42:04;;;;;;;5.73;3.40;;;22.30;36.50;;;;;;5073972;28;20502;-52
2023/07/19 00:44:30;;;;;;;6.67;4.27;;;22.30;36.50;;;;;;5073798;28;20417;-52
2023/07/19 00:47:01;;;;;;;6.30;4.10;;;22.30;36.70;;;;;;5073731;28;20454;-51
2023/07/19 00:49:27;;;;;;;9.00;4.43;;;22.30;36.90;;;;;;5073642;28;20411;-53
2023/07/19 00:51:53;;;;;;;8.73;3.97;;;22.30;36.60;;;;;;5073784;28;20403;-54
2023/07/19 00:54:20;;;;;;;7.37;3.37;;;22.30;36.30;;;;;;5073707;28;20887;-51
2023/07/19 00:56:46;;;;;;;5.40;3.40;;;22.30;35.90;;;;;;5073694;28;20517;-51
2023/07/19 00:59:14;;;;;;;5.50;3.73;;;22.30;35.90;;;;;;5073352;28;20468;-51
2023/07/19 01:01:44;;;;;;;4.00;3.50;;;22.30;36.10;;;;;;5073647;28;20413;-51
2023/07/19 01:04:10;;;;;;;4.20;3.07;;;22.30;36.30;;;;;;5073469;28;20560;-53
2023/07/19 01:06:36;;;;;;;6.10;4.00;;;22.30;36.30;;;;;;5073315;28;20454;-51
2023/07/19 01:09:03;;;;;;;5.37;3.27;;;22.30;36.10;;;;;;5073442;28;20410;-51
2023/07/19 01:11:29;;;;;;;3.60;2.93;;;22.20;35.50;;;;;;5073074;28;20458;-53
2023/07/19 01:13:55;;;;;;;4.70;2.70;;;22.10;35.90;;;;;;5073200;28;20454;-51
2023/07/19 01:16:21;;;;;;;6.43;3.00;;;22.10;36.10;;;;;;5073361;28;20184;-53
2023/07/19 01:18:48;;;;;;;4.63;3.23;;;22.10;36.30;;;;;;5073211;28;20411;-51
2023/07/19 01:21:14;;;;;;;5.03;3.10;;;22.00;36.40;;;;;;5072831;28;20430;-52
2023/07/19 01:23:40;;;;;;;5.33;3.13;;;22.00;36.70;;;;;;5073127;28;20417;-53
2023/07/19 01:26:06;;;;;;;4.33;3.40;;;22.00;36.70;;;;;;5072808;28;20454;-52
2023/07/19 01:28:32;;;;;;;6.73;3.73;;;21.90;36.40;;;;;;5072975;28;20917;-54
2023/07/19 01:31:03;;;;;;;5.10;3.33;;;21.90;36.70;;;;;;5072562;28;20457;-52
2023/07/19 01:33:29;;;;;;;4.83;3.20;;;21.80;36.90;;;;;;5072926;28;20922;-51
2023/07/19 01:35:55;;;;;;;4.70;2.70;;;21.80;36.80;;;;;;5072919;28;20403;-53
2023/07/19 01:38:21;;;;;;;5.20;3.60;;;21.80;36.30;;;;;;5072751;28;20768;-53
2023/07/19 01:40:47;;;;;;;6.33;3.10;;;21.80;36.40;;;;;;5072522;28;20196;-51
2023/07/19 01:43:13;;;;;;;4.20;3.50;;;21.80;36.50;;;;;;5072735;28;20433;-50
2023/07/19 01:45:39;;;;;;;6.73;3.67;;;21.80;36.50;;;;;;5072592;28;20454;-53
2023/07/19 01:48:05;;;;;;;6.77;3.57;;;21.80;36.70;;;;;;5072736;28;20460;-52
2023/07/19 01:50:31;;;;;;;6.53;3.60;;;21.80;36.70;;;;;;5072590;28;20484;-53
2023/07/19 01:52:57;;;;;;;5.13;3.20;;;21.70;36.90;;;;;;5072473;28;20775;-51
2023/07/19 01:55:23;;;;;;;5.73;3.63;;;21.70;37.20;;;;;;5072462;28;20901;-55
2023/07/19 01:57:49;;;;;;;5.97;3.27;;;21.60;37.00;;;;;;5072413;28;20407;-52
2023/07/19 02:00:15;;;;;;;3.80;3.07;;;21.50;37.30;;;;;;5072362;28;20196;-52
2023/07/19 02:02:42;;;;;;;4.50;3.33;;;21.50;37.30;;;;;;5072764;28;20438;-54
2023/07/19 02:05:08;;;;;;;5.17;3.27;;;21.40;37.50;;;;;;5072571;28;20399;-54
2023/07/19 02:07:34;;;;;;;4.90;3.20;;;21.40;37.50;;;;;;5072280;28;20537;-51
2023/07/19 02:10:00;;;;;;;7.30;3.33;;;21.30;37.50;;;;;;5072056;28;20437;-53
2023/07/19 02:12:26;;;;;;;12.83;3.57;;;21.30;37.60;;;;;;5072245;28;20399;-51
2023/07/19 02:14:54;;;;;;;5.57;3.57;;;21.30;37.80;;;;;;5072233;28;20184;-52
2023/07/19 02:17:20;;;;;;;4.33;3.27;;;21.30;37.90;;;;;;5072382;28;20418;-53
2023/07/19 02:19:45;;;;;;;4.10;3.10;;;21.20;37.90;;;;;;5070837;28;20791;-52
2023/07/19 02:22:12;;;;;;;5.40;3.60;;;21.20;38.00;;;;;;5072146;28;20694;-50
2023/07/19 02:24:38;;;;;;;5.60;3.40;;;21.20;37.80;;;;;;5072165;28;20185;-51
2023/07/19 02:27:04;;;;;;;5.47;3.50;;;21.20;37.80;;;;;;5071994;28;20515;-52
2023/07/19 02:29:29;;;;;;;3.57;3.20;;;21.30;38.10;;;;;;5071770;28;20439;-52
2023/07/19 02:31:55;;;;;;;5.77;3.00;;;21.20;38.00;;;;;;5072151;28;20417;-50
2023/07/19 02:34:21;;;;;;;5.27;3.20;;;21.20;37.90;;;;;;5072143;28;20172;-53
2023/07/19 02:36:48;;;;;;;4.60;3.33;;;21.20;37.80;;;;;;5071926;28;20803;-53
2023/07/19 02:39:14;;;;;;;5.20;3.20;;;21.10;37.90;;;;;;5071828;28;20415;-52
2023/07/19 02:41:40;;;;;;;6.10;3.40;;;21.10;37.80;;;;;;5070118;28;20422;-52
2023/07/19 02:44:06;;;;;;;5.63;3.10;;;21.10;37.70;;;;;;5071932;28;20417;-53
2023/07/19 02:46:32;;;;;;;6.40;3.60;;;21.10;37.70;;;;;;5071987;28;20283;-52
2023/07/19 02:48:58;;;;;;;5.90;3.90;;;21.10;37.70;;;;;;5071896;28;20793;-54
2023/07/19 02:51:23;;;;;;;4.73;3.57;;;21.20;37.80;;;;;;5071577;28;20434;-54
2023/07/19 02:53:49;;;;;;;5.47;3.27;;;21.20;37.90;;;;;;5071926;28;20453;-51
2023/07/19 02:56:15;;;;;;;6.07;3.87;;;21.10;37.90;;;;;;5071850;28;20200;-53
2023/07/19 02:58:42;;;;;;;5.60;2.87;;;21.10;37.90;;;;;;5071797;28;20434;-53
2023/07/19 03:01:08;;;;;;;10.67;4.13;;;21.10;38.10;;;;;;5071574;28;20193;-51
2023/07/19 03:03:34;;;;;;;5.80;2.57;;;21.00;38.00;;;;;;5071788;28;20417;-53
2023/07/19 03:06:02;;;;;;;6.33;3.13;;;20.90;37.90;;;;;;5071597;28;20557;-52
2023/07/19 03:08:28;;;;;;;3.63;2.60;;;20.90;37.90;;;;;;5071672;28;20206;-52
2023/07/19 03:10:54;;;;;;;6.03;3.05;;;20.90;37.70;;;;;;5071541;28;20454;-54
2023/07/19 03:13:20;;;;;;;3.40;3.10;;;20.90;37.80;;;;;;5071516;28;20200;-54
2023/07/19 03:15:46;;;;;;;12.43;3.80;;;20.90;37.90;;;;;;5071618;28;20403;-52
2023/07/19 03:18:12;;;;;;;7.67;4.10;;;20.80;38.00;;;;;;5071555;28;20521;-54
2023/07/19 03:20:38;;;;;;;6.60;4.00;;;20.80;38.10;;;;;;5071224;28;20534;-51
2023/07/19 03:23:05;;;;;;;12.43;4.40;;;20.80;38.20;;;;;;5071595;28;20407;-55
2023/07/19 03:25:31;;;;;;;12.13;3.80;;;20.80;38.20;;;;;;5071383;28;20799;-54
2023/07/19 03:27:57;;;;;;;7.77;3.50;;;20.70;38.20;;;;;;5071548;28;20445;-52
2023/07/19 03:30:23;;;;;;;6.70;3.60;;;20.70;38.90;;;;;;5071311;28;20419;-54
2023/07/19 03:32:49;;;;;;;8.37;3.57;;;20.70;38.50;;;;;;5070259;28;20834;-52
2023/07/19 03:35:15;;;;;;;7.77;3.90;;;20.70;38.20;;;;;;5071420;28;20403;-52
2023/07/19 03:37:44;;;;;;;7.13;3.33;;;20.70;38.30;;;;;;5071417;28;20486;-54
2023/07/19 03:40:14;;;;;;;6.07;3.97;;;20.70;37.90;;;;;;5071332;28;20426;-52
2023/07/19 03:42:40;;;;;;;4.75;3.20;;;20.70;38.30;;;;;;5071508;28;20645;-52
2023/07/19 03:45:07;;;;;;;6.85;3.70;;;20.70;38.40;;;;;;5071374;28;20218;-51
2023/07/19 03:47:34;;;;;;;6.53;3.75;;;20.60;38.60;;;;;;5071150;28;20294;-54
2023/07/19 03:50:00;;;;;;;4.90;3.33;;;20.70;38.60;;;;;;5071012;28;20196;-54
2023/07/19 03:52:26;;;;;;;4.50;3.25;;;20.60;38.70;;;;;;5071332;28;20169;-53
2023/07/19 03:54:54;;;;;;;4.83;3.83;;;20.60;38.80;;;;;;5073648;28;20181;-53
2023/07/19 03:57:19;;;;;;;7.43;3.85;;;20.50;39.10;;;;;;5074841;28;20419;-53
2023/07/19 03:59:45;;;;;;;10.83;3.50;;;20.60;38.90;;;;;;5074413;28;20219;-52
2023/07/19 04:02:11;;;;;;;11.50;3.40;;;20.60;39.20;;;;;;5074713;28;20403;-51
2023/07/19 04:04:37;;;;;;;6.40;3.80;;;20.60;39.40;;;;;;5074628;28;20419;-53
2023/07/19 04:07:03;;;;;;;5.17;3.30;;;20.60;39.40;;;;;;5074554;28;20204;-52
2023/07/19 04:09:29;;;;;;;7.90;3.67;;;20.60;39.50;;;;;;5074202;28;21006;-54
2023/07/19 04:11:55;;;;;;;5.27;4.00;;;20.70;39.00;;;;;;5074587;28;20502;-52
2023/07/19 04:14:21;;;;;;;5.00;3.70;;;20.70;38.70;;;;;;5074404;28;20177;-52
2023/07/19 04:16:47;;;;;;;7.27;3.67;;;20.80;38.70;;;;;;5074568;28;20494;-54
2023/07/19 04:19:12;;;;;;;8.33;3.93;;;20.70;39.00;;;;;;5074207;28;20991;-54
2023/07/19 04:21:38;;;;;;;3.80;3.40;;;20.80;39.20;;;;;;5074235;28;20403;-52
2023/07/19 04:24:04;;;;;;;5.13;3.20;;;20.90;39.30;;;;;;5074310;28;20169;-52
2023/07/19 04:26:30;;;;;;;4.70;3.63;;;21.70;39.50;;;;;;5074122;28;20989;-54
2023/07/19 04:28:57;;;;;;;4.77;3.30;;;21.00;38.90;;;;;;5074069;28;20407;-52
2023/07/19 04:31:23;;;;;;;7.00;3.70;;;21.10;39.30;;;;;;5073889;28;20207;-52
2023/07/19 04:33:50;;;;;;;6.53;3.77;;;21.20;39.50;;;;;;5074142;28;20402;-54
2023/07/19 04:36:16;;;;;;;5.03;3.07;;;21.10;39.00;;;;;;5074077;28;20421;-54
2023/07/19 04:38:43;;;;;;;4.30;3.10;;;21.20;39.00;;;;;;5073953;28;20911;-51
2023/07/19 04:41:09;;;;;;;5.20;4.10;;;21.30;39.20;;;;;;5073677;28;20419;-51
2023/07/19 04:43:35;;;;;;;4.70;3.37;;;21.30;39.00;;;;;;5074192;28;20415;-52
2023/07/19 04:46:01;;;;;;;4.50;3.43;;;21.40;38.00;;;;;;5073791;28;20453;-52
2023/07/19 04:48:27;;;;;;;5.00;3.33;;;21.30;38.50;;;;;;5074111;28;20403;-51
2023/07/19 04:50:57;;;;;;;7.67;3.20;;;21.30;38.00;;;;;;5073511;28;20419;-53
2023/07/19 04:53:25;;;;;;;5.87;4.23;;;21.40;37.70;;;;;;5073690;28;20422;-54
2023/07/19 04:55:51;;;;;;;6.37;3.90;;;21.50;37.40;;;;;;5073647;28;20411;-52
2023/07/19 04:58:18;;;;;;;8.37;3.67;;;21.50;37.80;;;;;;5073772;28;20433;-52
2023/07/19 05:00:44;;;;;;;5.80;3.87;;;21.50;37.20;;;;;;5073253;28;20803;-54
2023/07/19 05:03:10;;;;;;;6.73;4.00;;;21.60;37.30;;;;;;5073672;28;20515;-51
2023/07/19 05:05:37;;;;;;;6.00;3.97;;;21.70;37.20;;;;;;5072995;28;20399;-52
2023/07/19 05:08:04;;;;;;;4.50;3.30;;;21.80;37.00;;;;;;5073474;28;20410;-52
2023/07/19 05:10:30;;;;;;;6.33;3.83;;;21.90;37.20;;;;;;5073353;28;21051;-51
2023/07/19 05:13:04;;;;;;;6.00;3.40;;;22.00;37.20;;;;;;5073282;28;20488;-54
2023/07/19 05:15:30;;;;;;;6.17;3.00;;;22.00;36.90;;;;;;5055718;28;20483;-52
2023/07/19 05:17:56;;;;;;;4.93;3.90;;;22.10;36.80;;;;;;5072172;28;20434;-51
2023/07/19 05:20:21;;;;;;;5.50;3.87;;;22.20;37.40;;;;;;5072913;28;20497;-51
2023/07/19 05:22:47;;;;;;;7.60;4.10;;;22.30;37.40;;;;;;5073063;28;20667;-52
2023/07/19 05:25:13;;;;;;;7.00;3.03;;;22.40;35.80;;;;;;5073097;28;20168;-51
2023/07/19 05:27:39;;;;;;;4.70;2.90;;;22.40;35.40;;;;;;5072770;28;20240;-51
2023/07/19 05:30:05;;;;;;;5.30;2.47;;;22.50;35.40;;;;;;5072830;28;20275;-53
2023/07/19 05:32:31;;;;;;;4.40;3.03;;;22.50;35.60;;;;;;5072578;28;20395;-52
2023/07/19 05:34:58;;;;;;;4.80;3.00;;;22.60;35.50;;;;;;5072715;28;20410;-51
2023/07/19 05:37:23;;;;;;;5.27;3.17;;;22.60;35.20;;;;;;5072619;28;20434;-54
2023/07/19 05:39:50;;;;;;;3.93;2.83;;;22.80;35.00;;;;;;5072201;28;20450;-51
2023/07/19 05:42:16;;;;;;;5.50;3.93;;;22.90;35.20;;;;;;5072282;28;20200;-53
2023/07/19 05:44:42;;;;;;;6.30;4.53;;;23.00;35.00;;;;;;5072359;28;20775;-51
2023/07/19 05:47:07;;;;;;;8.83;3.60;;;23.00;34.20;;;;;;5071782;28;20458;-52
2023/07/19 05:49:34;;;;;;;4.00;2.87;;;23.00;34.20;;;;;;5066666;28;20217;-55
2023/07/19 05:52:00;;;;;;;7.30;3.63;;;23.20;34.50;;;;;;5072531;28;20709;-52
2023/07/19 05:54:25;;;;;;;5.93;3.47;;;23.20;34.40;;;;;;5072527;28;20768;-52
2023/07/19 05:56:51;;;;;;;3.33;2.60;;;23.30;34.90;;;;;;5072414;28;20406;-54
2023/07/19 05:59:17;;;;;;;12.20;4.00;;;23.50;35.00;;;;;;5072241;28;20172;-54
2023/07/19 06:01:43;;;;;;;6.60;3.80;;;23.60;35.00;;;;;;5072704;28;20797;-52
2023/07/19 06:04:10;;;;;;;5.10;3.33;;;23.70;33.60;;;;;;5072429;28;20189;-51
2023/07/19 06:06:35;;;;;;;4.93;3.27;;;23.70;33.20;;;;;;5072314;28;20196;-54
2023/07/19 06:09:05;;;;;;;6.60;2.73;;;23.70;33.80;;;;;;5072292;28;20749;-52
2023/07/19 06:11:32;;;;;;;5.20;3.20;;;24.40;34.00;;;;;;5072107;28;20555;-51
2023/07/19 06:13:59;;;;;;;4.00;3.00;;;23.90;33.60;;;;;;5072238;28;20423;-53
2023/07/19 06:16:25;;;;;;;6.50;3.43;;;24.00;33.70;;;;;;5071606;28;20507;-52
2023/07/19 06:18:51;;;;;;;7.60;3.50;;;24.00;32.50;;;;;;5072457;28;20403;-52
2023/07/19 06:21:17;;;;;;;4.23;3.00;;;24.00;33.10;;;;;;5071893;28;20505;-54
2023/07/19 06:23:43;;;;;;;8.77;3.60;;;24.10;33.60;;;;;;5072098;28;20918;-51
2023/07/19 06:26:10;;;;;;;5.43;2.87;;;24.30;33.90;;;;;;5071957;28;20512;-52
2023/07/19 06:28:36;;;;;;;5.60;3.60;;;24.40;33.90;;;;;;5072315;28;20176;-56
2023/07/19 06:31:02;;;;;;;6.17;3.20;;;24.50;33.90;;;;;;5071975;28;20954;-51
2023/07/19 06:33:31;;;;;;;7.57;4.20;;;24.70;33.70;;;;;;5072097;28;20486;-53
2023/07/19 06:35:57;;;;;;;8.67;3.13;;;24.70;32.50;;;;;;5071978;28;20446;-52
2023/07/19 06:38:24;;;;;;;6.63;2.87;;;24.80;32.30;;;;;;5071958;28;20419;-52
2023/07/19 06:40:50;;;;;;;5.33;2.80;;;24.90;32.80;;;;;;5071896;28;20434;-54
2023/07/19 06:43:16;;;;;;;4.67;3.57;;;25.00;32.90;;;;;;5071910;28;20407;-51
2023/07/19 06:45:44;;;;;;;5.60;2.60;;;25.10;32.70;;;;;;5072093;28;20414;-51
2023/07/19 06:48:10;;;;;;;5.03;3.00;;;25.20;32.90;;;;;;5071880;28;20396;-52
2023/07/19 06:50:35;;;;;;;4.20;2.30;;;25.40;33.50;;;;;;5071500;28;20430;-52
2023/07/19 06:53:01;;;;;;;4.83;2.43;;;25.60;33.30;;;;;;5071858;28;20188;-52
2023/07/19 06:55:28;;;;;;;3.60;3.07;;;25.70;32.60;;;;;;5071841;28;20176;-52
2023/07/19 06:57:53;;;;;;;5.07;2.90;;;25.80;31.60;;;;;;5071920;28;20764;-52
2023/07/19 07:00:20;;;;;;;5.60;2.80;;;25.80;30.80;;;;;;5071492;28;20937;-53
2023/07/19 07:02:46;;;;;;;5.03;2.97;;;25.80;30.70;;;;;;5071808;28;20705;-51
2023/07/19 07:05:12;;;;;;;9.53;2.90;;;25.90;32.10;;;;;;5071767;28;20418;-51
2023/07/19 07:07:39;;;;;;;6.30;3.30;;;26.00;32.60;;;;;;5071600;28;20438;-53
2023/07/19 07:10:08;;;;;;;5.20;2.57;;;26.10;31.30;;;;;;5071414;28;20421;-51
2023/07/19 07:12:35;;;;;;;5.53;3.37;;;26.20;32.10;;;;;;5071785;28;20453;-50
2023/07/19 07:15:02;;;;;;;4.57;2.60;;;26.30;32.10;;;;;;5071655;28;20414;-53
2023/07/19 07:17:28;;;;;;;5.47;2.80;;;26.40;31.20;;;;;;5071915;28;20455;-52
2023/07/19 07:19:53;;;;;;;5.27;3.13;;;26.60;30.30;;;;;;5071267;28;20855;-53
2023/07/19 07:22:20;;;;;;;10.10;2.90;;;26.60;29.00;;;;;;5071807;28;20403;-51
2023/07/19 07:24:45;;;;;;;7.17;2.93;;;26.60;29.00;;;;;;5071744;28;20402;-50
2023/07/19 07:27:11;;;;;;;11.47;3.80;;;26.70;31.20;;;;;;5071420;28;21167;-54
2023/07/19 07:29:41;;;;;;;6.57;3.20;;;26.80;31.10;;;;;;5074942;28;20196;-51
2023/07/19 07:32:08;;;;;;;7.13;3.20;;;27.00;32.80;;;;;;5075612;28;20395;-52
2023/07/19 07:34:34;;;;;;;8.43;3.03;;;27.10;31.40;;;;;;5075161;28;20499;-51
2023/07/19 07:37:00;;;;;;;6.10;3.50;;;27.30;31.30;;;;;;5075086;28;20505;-54
2023/07/19 07:39:25;;;;;;;4.03;2.97;;;27.50;29.80;;;;;;5074836;28;20415;-54
2023/07/19 07:41:51;;;;;;;6.10;2.60;;;27.50;29.10;;;;;;5075106;28;20173;-52
2023/07/19 07:44:17;;;;;;;4.10;2.80;;;27.60;29.40;;;;;;5075067;28;20221;-52
2023/07/19 07:46:43;;;;;;;7.03;2.87;;;27.70;29.90;;;;;;5074833;28;20220;-53
2023/07/19 07:49:09;;;;;;;4.27;2.90;;;27.80;29.60;;;;;;5074774;28;20188;-51
2023/07/19 07:51:35;;;;;;;7.10;3.30;;;28.00;30.40;;;;;;5074661;28;20179;-51
2023/07/19 07:54:00;;;;;;;6.03;3.03;;;28.20;29.20;;;;;;5075101;28;20183;-54
2023/07/19 07:56:26;;;;;;;4.53;3.00;;;28.30;27.40;;;;;;5074862;28;20403;-53
2023/07/19 07:58:52;;;;;;;3.40;2.60;;;28.40;27.40;;;;;;5074754;28;20176;-51
2023/07/19 08:01:18;;;;;;;6.93;2.40;;;28.50;26.70;;;;;;5074479;28;20734;-54
2023/07/19 08:03:44;;;;;;;8.10;2.40;;;28.60;27.10;;;;;;5074973;28;20187;-54
2023/07/19 08:06:10;;;;;;;4.17;2.90;;;28.70;27.70;;;;;;5074547;28;20455;-52
2023/07/19 08:08:35;;;;;;;5.80;2.30;;;28.80;28.40;;;;;;5074772;28;20200;-53
2023/07/19 08:11:05;;;;;;;8.20;2.77;;;29.00;28.20;;;;;;5074479;28;20688;-51
2023/07/19 08:13:31;;;;;;;3.00;2.63;;;29.20;26.50;;;;;;5074370;28;20552;-52
2023/07/19 08:15:56;;;;;;;3.77;3.00;;;29.30;25.10;;;;;;5074444;28;20407;-54
2023/07/19 08:18:22;;;;;;;8.37;2.97;;;29.30;27.10;;;;;;5074349;28;20403;-51
2023/07/19 08:20:50;;;;;;;5.40;2.67;;;29.40;24.00;;;;;;5074570;28;20196;-52
2023/07/19 08:23:16;;;;;;;4.83;2.70;;;29.50;25.30;;;;;;5074341;28;20663;-54
2023/07/19 08:25:42;;;;;;;5.80;3.03;;;29.60;24.10;;;;;;5074507;28;20423;-51
2023/07/19 08:28:08;;;;;;;5.63;2.73;;;29.50;23.20;;;;;;5074267;28;20221;-51
2023/07/19 08:30:33;;;;;;;5.97;2.67;;;29.50;22.20;;;;;;5073875;28;20193;-54
2023/07/19 08:33:01;;;;;;;6.67;2.50;;;29.60;25.90;;;;;;5074365;28;20238;-54
2023/07/19 08:35:27;;;;;;;4.23;2.80;;;29.70;25.00;;;;;;5074351;28;20302;-53
2023/07/19 08:37:53;;;;;;;5.83;2.60;;;29.80;24.80;;;;;;5074238;28;20449;-53
2023/07/19 08:40:19;;;;;;;3.73;2.20;;;29.90;26.60;;;;;;5072956;28;20207;-53
2023/07/19 08:42:45;;;;;;;4.53;2.60;;;30.20;25.20;;;;;;5074025;28;20411;-53
2023/07/19 08:45:11;;;;;;;4.83;2.83;;;30.20;26.70;;;;;;5074195;28;20437;-54
2023/07/19 08:47:39;;;;;;;13.17;2.83;;;30.30;25.40;;;;;;5073673;28;20457;-51
2023/07/19 08:50:05;;;;;;;5.30;2.63;;;30.50;26.90;;;;;;5073426;28;20516;-52
2023/07/19 08:52:35;;;;;;;7.23;4.87;;;30.60;23.60;;;;;;5073815;28;20453;-54
2023/07/19 08:55:02;;;;;;;5.27;2.73;;;30.60;24.10;;;;;;5073917;28;20414;-52
2023/07/19 08:57:29;;;;;;;5.77;3.20;;;30.60;24.50;;;;;;5073658;28;20402;-52
2023/07/19 08:59:55;;;;;;;5.93;2.63;;;30.50;21.50;;;;;;5073284;28;21002;-54
2023/07/19 09:02:21;;;;;;;9.63;2.80;;;30.40;22.60;;;;;;5073441;28;20511;-52
2023/07/19 09:05:10;;;;;;;5.90;2.70;;;30.50;24.10;;;;;;5073649;28;20417;-54
2023/07/19 09:07:38;;;;;;;3.70;2.50;;;30.60;25.20;;;;;;5072284;28;20446;-51
2023/07/19 09:10:09;;;;;;;5.10;3.20;;;30.70;23.10;;;;;;5073447;28;20440;-54
2023/07/19 09:12:37;;;;;;;4.73;2.63;;;30.80;23.30;;;;;;5073293;28;20406;-52
2023/07/19 09:15:04;;;;;;;9.23;3.10;;;30.90;25.30;;;;;;5073372;28;20411;-51
2023/07/19 09:17:34;;;;;;;4.93;2.53;;;31.00;24.70;;;;;;5073256;28;20407;-54
2023/07/19 09:20:00;;;;;;;5.23;2.70;;;31.10;24.90;;;;;;5073240;28;20430;-53
2023/07/19 09:22:28;;;;;;;7.00;2.87;;;31.20;25.20;;;;;;5073126;28;20987;-51
2023/07/19 09:25:01;;;;;;;6.10;3.17;;;31.30;25.10;;;;;;5073071;28;20180;-55
2023/07/19 09:27:28;;;;;;;4.70;2.13;;;31.50;25.10;;;;;;5073218;28;20461;-54
2023/07/19 09:29:54;;;;;;;5.80;2.77;;;31.60;23.70;;;;;;5072655;28;20422;-52
2023/07/19 09:32:20;;;;;;;18.70;3.43;;;31.70;23.70;;;;;;5073096;28;20453;-54
2023/07/19 09:34:46;;;;;;;5.23;2.63;;;31.80;23.70;;;;;;5072943;28;20921;-52
2023/07/19 09:37:11;;;;;;;5.43;3.13;;;31.90;22.80;;;;;;5072894;28;20632;-54
2023/07/19 09:39:38;;;;;;;9.10;2.83;;;32.00;23.00;;;;;;5072454;28;20437;-53
2023/07/19 09:42:04;;;;;;;8.73;3.20;;;32.20;21.90;;;;;;5072794;28;20574;-52
2023/07/19 09:44:32;;;;;;;3.20;2.20;;;32.20;23.10;;;;;;5073020;28;20419;-55
2023/07/19 09:47:00;;;;;;;5.70;2.70;;;32.10;22.40;;;;;;5072746;28;20929;-53
2023/07/19 09:49:26;;;;;;;3.53;2.63;;;32.10;22.30;;;;;;5072318;28;20438;-53
2023/07/19 09:51:56;;;;;;;5.63;2.60;;;32.10;22.20;;;;;;5072561;28;20442;-54
2023/07/19 09:54:24;;;;;;;5.00;3.20;;;32.10;21.70;;;;;;5072387;28;20915;-53
2023/07/19 09:56:50;;;;;;;4.10;2.90;;;32.10;21.20;;;;;;5072772;28;20453;-55
2023/07/19 09:59:25;;;;;;;6.97;2.90;;;32.10;21.70;;;;;;5072178;28;20464;-52
2023/07/19 10:01:51;;;;;;;3.67;2.97;;;32.20;22.60;;;;;;5072559;28;20416;-53
2023/07/19 10:04:28;;;;;;;16.73;4.03;;;32.20;21.80;;;;;;5072475;28;20417;-55
2023/07/19 10:07:20;;;;;;;7.40;3.23;;;32.40;22.80;;;;;;5072229;28;20983;-52
2023/07/19 10:09:52;;;;;;;5.33;2.70;;;32.50;23.70;;;;;;5071578;28;20938;-52
2023/07/19 10:12:17;;;;;;;3.43;2.70;;;32.40;21.30;;;;;;5072331;28;20409;-52
2023/07/19 10:15:03;;;;;;;3.50;2.27;;;32.30;21.70;;;;;;5072166;28;20430;-52
2023/07/19 10:17:37;;;;;;;5.20;3.00;;;32.30;23.00;;;;;;5072263;28;20187;-53
2023/07/19 10:20:06;;;;;;;3.93;2.77;;;32.10;22.10;;;;;;5071889;28;20422;-54
2023/07/19 10:22:55;;;;;;;3.93;2.70;;;32.10;23.40;;;;;;5072134;28;20419;-53
2023/07/19 10:25:32;;;;;;;5.23;3.50;;;32.20;22.40;;;;;;5072221;28;20411;-54
2023/07/19 10:28:03;;;;;;;5.00;2.77;;;32.20;22.20;;;;;;5072089;28;20491;-53
2023/07/19 10:30:46;;;;;;;4.73;2.93;;;32.30;21.50;;;;;;5071767;28;20941;-55
2023/07/19 10:33:28;;;;;;;3.40;2.80;;;32.40;22.50;;;;;;5072054;28;20435;-55
2023/07/19 10:35:58;;;;;;;4.63;3.20;;;32.50;22.90;;;;;;5072152;28;20728;-53
2023/07/19 10:38:30;;;;;;;6.20;3.30;;;32.40;21.70;;;;;;5071153;28;20422;-55
2023/07/19 10:41:01;;;;;;;7.03;2.93;;;32.50;21.90;;;;;;5071632;28;20851;-52
2023/07/19 10:43:28;;;;;;;3.40;2.50;;;32.60;21.30;;;;;;5072005;28;20890;-52
2023/07/19 10:45:55;;;;;;;5.90;3.03;;;32.70;21.40;;;;;;5071822;28;20407;-55
2023/07/19 10:48:32;;;;;;;4.57;2.83;;;32.80;20.60;;;;;;5071732;28;20501;-53
2023/07/19 10:50:59;;;;;;;4.83;2.90;;;32.80;20.70;;;;;;5071599;28;20816;-55
2023/07/19 10:53:26;;;;;;;6.70;3.40;;;32.90;22.30;;;;;;5071824;28;20406;-52
2023/07/19 10:55:55;;;;;;;4.17;2.90;;;33.00;21.70;;;;;;5071770;28;20407;-54
2023/07/19 10:58:21;;;;;;;9.07;3.57;;;33.10;21.50;;;;;;5071834;28;20403;-55
2023/07/19 11:00:51;;;;;;;5.03;3.93;;;33.20;20.50;;;;;;5071752;28;20423;-54
2023/07/19 11:03:22;;;;;;;4.27;2.53;;;33.30;20.60;;;;;;5073365;28;20409;-54
2023/07/19 11:05:49;;;;;;;5.67;3.00;;;33.40;20.00;;;;;;5075789;28;20409;-52
2023/07/19 11:08:23;;;;;;;7.53;3.60;;;33.50;21.90;;;;;;5075813;28;20490;-54
2023/07/19 11:10:50;;;;;;;3.60;2.67;;;33.80;22.90;;;;;;5075384;28;20471;-52
2023/07/19 11:13:17;;;;;;;4.93;3.30;;;34.00;22.10;;;;;;5075498;28;20926;-55
2023/07/19 11:15:48;;;;;;;6.60;3.67;;;34.10;22.20;;;;;;5075364;28;20501;-55
2023/07/19 11:18:27;;;;;;;7.70;3.00;;;34.20;20.30;;;;;;5075830;28;20451;-52
2023/07/19 11:20:59;;;;;;;6.70;2.70;;;34.10;20.00;;;;;;5075196;28;20522;-53
2023/07/19 11:23:26;;;;;;;9.70;3.50;;;34.00;20.80;;;;;;5075520;28;20445;-55
2023/07/19 11:26:03;;;;;;;6.27;3.53;;;34.00;21.90;;;;;;5075306;28;20426;-52
2023/07/19 11:28:43;;;;;;;6.70;3.03;;;33.80;20.00;;;;;;5075567;28;20406;-54
2023/07/19 11:31:10;;;;;;;5.63;3.03;;;33.70;21.80;;;;;;5075117;28;20536;-54
2023/07/19 11:33:36;;;;;;;4.33;2.73;;;33.50;20.20;;;;;;5075216;28;20410;-52
2023/07/19 11:36:10;;;;;;;5.40;3.50;;;33.30;21.20;;;;;;5075312;28;20406;-52
2023/07/19 11:38:40;;;;;;;10.63;4.20;;;33.30;20.00;;;;;;5075077;28;20407;-54
2023/07/19 11:41:06;;;;;;;3.73;2.87;;;33.30;21.90;;;;;;5074837;28;20516;-52
2023/07/19 11:43:33;;;;;;;5.87;2.50;;;33.30;22.10;;;;;;5075219;28;20403;-52
2023/07/19 11:46:00;;;;;;;8.50;2.90;;;33.30;19.70;;;;;;5074953;28;20440;-54
2023/07/19 11:48:25;;;;;;;7.70;3.30;;;33.30;20.70;;;;;;5074985;28;20755;-52
2023/07/19 11:50:51;;;;;;;12.43;3.20;;;33.40;20.20;;;;;;5074668;28;20423;-52
2023/07/19 11:53:17;;;;;;;5.60;3.10;;;33.50;20.30;;;;;;5074864;28;20229;-55
2023/07/19 11:55:44;;;;;;;7.60;3.17;;;33.70;20.80;;;;;;5075125;28;20251;-52
2023/07/19 11:58:11;;;;;;;4.50;3.10;;;33.90;21.10;;;;;;5074803;28;20181;-54
2023/07/19 12:00:37;;;;;;;10.30;3.60;;;34.10;22.00;;;;;;5074454;28;20427;-53
2023/07/19 12:03:03;;;;;;;4.27;2.60;;;34.10;21.40;;;;;;5074673;28;20759;-52
2023/07/19 12:05:29;;;;;;;8.67;3.60;;;34.10;21.30;;;;;;5074636;28;20403;-54
2023/07/19 12:07:56;;;;;;;6.13;2.97;;;33.90;20.00;;;;;;5074887;28;20203;-54
2023/07/19 12:10:22;;;;;;;6.37;2.40;;;33.80;19.50;;;;;;5074620;28;20431;-54
2023/07/19 12:12:49;;;;;;;4.03;2.80;;;33.80;20.00;;;;;;5074699;28;20751;-54
2023/07/19 12:15:16;;;;;;;10.50;3.10;;;34.00;20.90;;;;;;5073548;28;20392;-54
2023/07/19 12:17:43;;;;;;;5.87;2.87;;;34.20;20.60;;;;;;5074406;28;20418;-51
2023/07/19 12:20:09;;;;;;;3.90;2.50;;;34.40;21.90;;;;;;5074122;28;20436;-54
2023/07/19 12:22:38;;;;;;;3.43;3.00;;;34.60;21.00;;;;;;5074333;28;20469;-54
2023/07/19 12:25:04;;;;;;;4.87;2.93;;;34.80;21.40;;;;;;5074302;28;20407;-54
2023/07/19 12:27:31;;;;;;;4.13;3.30;;;35.00;21.90;;;;;;5074282;28;20964;-54
2023/07/19 12:29:58;;;;;;;6.43;3.30;;;35.20;21.80;;;;;;5074034;28;20425;-54
2023/07/19 12:32:24;;;;;;;8.13;3.70;;;35.30;20.00;;;;;;5074215;28;20409;-54
2023/07/19 12:34:50;;;;;;;4.30;2.97;;;35.40;19.70;;;;;;5074059;28;20491;-53
2023/07/19 12:37:16;;;;;;;5.60;3.70;;;35.60;20.50;;;;;;5074388;28;20832;-53
2023/07/19 12:39:43;;;;;;;7.23;3.23;;;35.60;19.90;;;;;;5073812;28;20469;-55
2023/07/19 12:42:10;;;;;;;3.80;2.60;;;35.60;18.60;;;;;;5074164;28;20512;-55
2023/07/19 12:44:36;;;;;;;7.43;3.43;;;35.30;17.40;;;;;;5073847;28;20421;-52